createdAt,value
2023-05-04T00:01:32.301Z,0.40
2023-05-04T00:04:02.667Z,0.50
2023-05-04T00:06:36.009Z,0.40
2023-05-04T00:09:07.462Z,0.35
2023-05-04T00:11:37.428Z,0.50
2023-05-04T00:14:07.629Z,0.47
2023-05-04T00:16:38.005Z,0.38
2023-05-04T00:19:08.091Z,0.50
2023-05-04T00:21:41.215Z,0.50
2023-05-04T00:24:11.770Z,0.40
2023-05-04T00:26:41.865Z,0.40
2023-05-04T00:29:11.925Z,0.50
2023-05-04T00:31:42.659Z,0.60
2023-05-04T00:34:13.412Z,0.60
2023-05-04T00:36:47.031Z,0.50
2023-05-04T00:39:18.402Z,0.40
2023-05-04T00:41:48.769Z,0.40
2023-05-04T00:44:18.697Z,0.40
2023-05-04T00:46:49.217Z,0.50
2023-05-04T00:49:19.633Z,0.40
2023-05-04T00:51:54.468Z,0.50
2023-05-04T00:54:24.930Z,0.40
2023-05-04T00:56:55.041Z,0.30
2023-05-04T00:59:24.862Z,0.40
2023-05-04T01:01:55.298Z,0.50
2023-05-04T01:04:25.692Z,0.50
2023-05-04T01:07:03.887Z,0.50
2023-05-04T01:09:48.066Z,0.50
2023-05-04T01:12:26.269Z,0.43
2023-05-04T01:14:57.634Z,0.60
2023-05-04T01:17:28.212Z,0.60
2023-05-04T01:19:58.143Z,0.57
2023-05-04T01:22:31.803Z,0.60
2023-05-04T01:25:02.196Z,0.45
2023-05-04T01:27:41.009Z,0.50
2023-05-04T01:30:16.801Z,0.50
2023-05-04T01:32:49.364Z,0.40
2023-05-04T01:35:19.651Z,0.40
2023-05-04T01:37:52.604Z,0.43
2023-05-04T01:40:22.640Z,0.50
2023-05-04T01:42:52.984Z,0.50
2023-05-04T01:45:23.949Z,0.50
2023-05-04T01:47:53.917Z,0.50
2023-05-04T01:50:23.877Z,0.43
2023-05-04T01:52:56.323Z,0.40
2023-05-04T01:55:26.521Z,0.60
2023-05-04T01:57:56.282Z,0.50
2023-05-04T02:00:26.234Z,0.50
2023-05-04T02:02:56.935Z,0.40
2023-05-04T02:05:26.971Z,0.45
2023-05-04T02:08:00.324Z,0.50
2023-05-04T02:10:30.370Z,0.40
2023-05-04T02:13:00.985Z,0.40
2023-05-04T02:15:30.895Z,0.30
2023-05-04T02:18:00.718Z,0.40
2023-05-04T02:20:31.612Z,0.50
2023-05-04T02:23:04.693Z,0.40
2023-05-04T02:25:34.594Z,0.52
2023-05-04T02:28:05.513Z,0.50
2023-05-04T02:30:36.087Z,0.40
2023-05-04T02:33:06.282Z,0.57
2023-05-04T02:35:38.746Z,0.50
2023-05-04T02:38:13.052Z,0.50
2023-05-04T02:40:43.360Z,0.40
2023-05-04T02:43:13.556Z,0.57
2023-05-04T02:45:46.403Z,0.40
2023-05-04T02:48:16.403Z,0.40
2023-05-04T02:50:48.978Z,0.43
2023-05-04T02:53:21.454Z,0.43
2023-05-04T02:55:51.543Z,0.30
2023-05-04T02:58:21.740Z,0.40
2023-05-04T03:00:56.633Z,0.40
2023-05-04T03:03:27.115Z,0.60
2023-05-04T03:05:58.767Z,0.40
2023-05-04T03:08:32.147Z,0.50
2023-05-04T03:11:02.654Z,0.40
2023-05-04T03:13:35.213Z,0.40
2023-05-04T03:16:06.330Z,0.30
2023-05-04T03:21:24.217Z,0.30
2023-05-04T03:23:56.882Z,0.50
2023-05-04T03:26:27.264Z,0.50
2023-05-04T03:28:58.268Z,0.50
2023-05-04T03:31:28.522Z,0.35
2023-05-04T03:33:59.105Z,0.50
2023-05-04T03:36:29.829Z,0.50
2023-05-04T03:39:02.639Z,0.50
2023-05-04T03:41:33.085Z,0.40
2023-05-04T03:44:03.014Z,0.40
2023-05-04T03:46:33.118Z,0.50
2023-05-04T03:49:03.549Z,0.40
2023-05-04T03:51:34.199Z,0.43
2023-05-04T03:54:07.612Z,0.40
2023-05-04T03:56:37.831Z,0.40
2023-05-04T03:59:07.654Z,0.40
2023-05-04T04:01:37.596Z,0.50
2023-05-04T04:04:08.836Z,0.40
2023-05-04T04:06:43.398Z,0.45
2023-05-04T04:09:18.602Z,0.40
2023-05-04T04:11:48.862Z,0.50
2023-05-04T04:14:20.309Z,0.50
2023-05-04T04:16:50.911Z,0.47
2023-05-04T04:19:20.728Z,0.40
2023-05-04T04:21:50.538Z,0.40
2023-05-04T04:24:23.272Z,0.50
2023-05-04T04:26:54.043Z,0.40
2023-05-04T04:29:26.061Z,0.50
2023-05-04T04:31:59.491Z,0.40
2023-05-04T04:34:29.694Z,0.43
2023-05-04T04:36:59.640Z,0.47
2023-05-04T04:39:33.084Z,0.47
2023-05-04T04:42:03.334Z,0.50
2023-05-04T04:44:33.348Z,0.60
2023-05-04T04:47:03.450Z,0.63
2023-05-04T04:49:35.383Z,0.50
2023-05-04T04:52:06.436Z,0.43
2023-05-04T04:54:39.938Z,0.50
2023-05-04T04:57:12.072Z,0.63
2023-05-04T04:59:42.445Z,0.45
2023-05-04T05:02:12.990Z,0.57
2023-05-04T05:04:44.533Z,0.30
2023-05-04T05:07:15.029Z,0.50
2023-05-04T05:09:50.262Z,0.40
2023-05-04T05:12:20.336Z,0.50
2023-05-04T05:14:51.118Z,0.60
2023-05-04T05:17:22.157Z,0.40
2023-05-04T05:19:52.745Z,0.50
2023-05-04T05:22:22.854Z,0.60
2023-05-04T05:24:55.376Z,0.50
2023-05-04T05:27:25.402Z,0.40
2023-05-04T05:29:55.291Z,0.40
2023-05-04T05:32:25.637Z,0.30
2023-05-04T05:34:58.807Z,0.55
2023-05-04T05:37:31.101Z,0.50
2023-05-04T05:40:05.654Z,0.50
2023-05-04T05:42:39.532Z,0.40
2023-05-04T05:45:11.110Z,0.50
2023-05-04T05:47:41.022Z,0.50
2023-05-04T05:50:12.717Z,0.50
2023-05-04T05:52:43.410Z,0.40
2023-05-04T05:55:16.309Z,0.40
2023-05-04T05:57:47.901Z,0.40
2023-05-04T06:00:19.476Z,0.60
2023-05-04T06:02:49.674Z,0.40
2023-05-04T06:05:19.549Z,0.40
2023-05-04T06:07:50.141Z,0.40
2023-05-04T06:10:22.862Z,0.40
2023-05-04T06:12:53.221Z,0.30
2023-05-04T06:15:23.284Z,0.50
2023-05-04T06:17:54.200Z,0.40
2023-05-04T06:20:24.265Z,0.40
2023-05-04T06:22:54.512Z,0.40
2023-05-04T06:25:27.319Z,0.40
2023-05-04T06:27:58.135Z,0.40
2023-05-04T06:30:28.200Z,0.43
2023-05-04T06:32:58.202Z,0.40
2023-05-04T06:35:31.013Z,0.30
2023-05-04T06:38:01.513Z,0.40
2023-05-04T06:40:34.268Z,0.40
2023-05-04T06:43:04.552Z,0.30
2023-05-04T06:45:39.997Z,0.40
2023-05-04T06:48:12.529Z,0.40
2023-05-04T06:50:42.725Z,0.38
2023-05-04T06:53:14.418Z,0.40
2023-05-04T06:55:47.973Z,0.30
2023-05-04T06:58:20.197Z,0.40
2023-05-04T07:00:50.477Z,0.30
2023-05-04T07:03:20.802Z,0.30
2023-05-04T07:05:51.628Z,0.30
2023-05-04T07:08:22.619Z,0.40
2023-05-04T07:10:55.947Z,0.30
2023-05-04T07:13:26.447Z,0.30
2023-05-04T07:15:56.559Z,0.30
2023-05-04T07:18:26.787Z,0.30
2023-05-04T07:21:06.092Z,0.30
2023-05-04T07:23:47.168Z,0.30
2023-05-04T07:26:20.000Z,0.30
2023-05-04T07:28:50.288Z,0.30
2023-05-04T07:31:20.185Z,0.30
2023-05-04T07:33:50.946Z,0.30
2023-05-04T07:36:21.347Z,0.30
2023-05-04T07:38:51.851Z,0.28
2023-05-04T07:41:24.526Z,0.30
2023-05-04T07:43:54.601Z,0.30
2023-05-04T07:46:24.911Z,0.30
2023-05-04T07:48:55.122Z,0.30
2023-05-04T07:51:26.386Z,0.30
2023-05-04T07:53:56.770Z,0.30
2023-05-04T07:56:29.402Z,0.30
2023-05-04T07:58:59.580Z,0.22
2023-05-04T08:01:30.618Z,0.28
2023-05-04T08:04:00.893Z,0.25
2023-05-04T08:06:31.129Z,0.30
2023-05-04T08:09:01.113Z,0.30
2023-05-04T08:11:37.463Z,0.30
2023-05-04T08:14:08.071Z,0.30
2023-05-04T08:16:41.540Z,0.30
2023-05-04T08:19:12.752Z,0.30
2023-05-04T08:21:44.437Z,0.30
2023-05-04T08:24:14.902Z,0.30
2023-05-04T08:26:59.712Z,0.30
2023-05-04T08:29:37.505Z,0.30
2023-05-04T08:32:08.991Z,0.30
2023-05-04T08:34:40.601Z,0.20
2023-05-04T08:37:10.897Z,0.30
2023-05-04T08:39:42.146Z,0.30
2023-05-04T08:42:15.823Z,0.22
2023-05-04T08:44:46.020Z,0.20
2023-05-04T08:47:16.597Z,0.20
2023-05-04T08:49:48.829Z,0.30
2023-05-04T08:52:20.339Z,0.20
2023-05-04T08:54:52.287Z,0.30
2023-05-04T08:57:26.803Z,0.30
2023-05-04T08:59:58.551Z,0.20
2023-05-04T09:02:31.594Z,0.30
2023-05-04T09:05:04.796Z,0.20
2023-05-04T09:07:37.895Z,0.20
2023-05-04T09:10:09.355Z,0.20
2023-05-04T09:12:43.789Z,0.20
2023-05-04T09:15:18.545Z,0.28
2023-05-04T09:17:58.733Z,0.30
2023-05-04T09:20:30.128Z,0.20
2023-05-04T09:23:07.418Z,0.30
2023-05-04T09:25:38.052Z,0.30
2023-05-04T09:28:11.115Z,0.30
2023-05-04T09:30:41.234Z,0.20
2023-05-04T09:33:14.030Z,0.20
2023-05-04T09:35:45.840Z,0.20
2023-05-04T09:38:28.232Z,0.20
2023-05-04T09:40:59.631Z,0.20
2023-05-04T09:43:40.580Z,0.20
2023-05-04T09:46:11.337Z,0.20
2023-05-04T09:48:41.933Z,0.20
2023-05-04T09:51:12.828Z,0.20
2023-05-04T09:53:46.320Z,0.20
2023-05-04T09:56:22.377Z,0.20
2023-05-04T09:58:58.203Z,0.20
2023-05-04T10:01:31.036Z,0.25
2023-05-04T10:04:04.329Z,0.20
2023-05-04T10:06:35.553Z,0.20
2023-05-04T10:09:06.538Z,0.20
2023-05-04T10:11:38.245Z,0.17
2023-05-04T10:14:12.976Z,0.20
2023-05-04T10:16:53.650Z,0.20
2023-05-04T10:19:51.047Z,0.10
2023-05-04T10:22:36.924Z,0.20
2023-05-04T10:25:32.887Z,0.20
2023-05-04T10:28:12.446Z,0.20
2023-05-04T10:30:47.790Z,0.20
2023-05-04T10:33:18.258Z,0.20
2023-05-04T10:35:55.945Z,0.20
2023-05-04T10:38:35.284Z,0.20
2023-05-04T10:41:16.492Z,0.20
2023-05-04T10:43:49.330Z,0.20
2023-05-04T10:46:25.192Z,0.20
2023-05-04T10:48:55.197Z,0.20
2023-05-04T10:51:35.616Z,0.20
2023-05-04T10:54:20.645Z,0.10
2023-05-04T10:56:50.584Z,0.10
2023-05-04T10:59:20.834Z,0.20
2023-05-04T11:01:55.644Z,0.20
2023-05-04T11:04:25.902Z,0.20
2023-05-04T11:06:59.761Z,0.10
2023-05-04T11:09:31.128Z,0.10
2023-05-04T11:12:01.093Z,0.17
2023-05-04T11:14:32.516Z,0.10
2023-05-04T11:19:53.721Z,0.20
2023-05-04T11:22:23.962Z,0.20
2023-05-04T11:24:57.413Z,0.13
2023-05-04T11:27:30.033Z,0.20
2023-05-04T11:30:18.939Z,0.20
2023-05-04T11:33:00.805Z,0.20
2023-05-04T11:35:33.785Z,0.20
2023-05-04T11:38:09.062Z,0.20
2023-05-04T11:40:41.541Z,0.20
2023-05-04T11:43:14.329Z,0.20
2023-05-04T11:45:55.163Z,0.20
2023-05-04T11:48:49.765Z,0.10
2023-05-04T11:51:19.931Z,0.10
2023-05-04T11:53:54.050Z,0.10
2023-05-04T11:56:24.458Z,0.20
2023-05-04T11:59:13.714Z,0.10
2023-05-04T12:01:51.024Z,0.10
2023-05-04T12:04:23.983Z,0.10
2023-05-04T12:06:54.439Z,0.20
2023-05-04T12:09:25.806Z,0.10
2023-05-04T12:11:59.412Z,0.10
2023-05-04T12:14:31.964Z,0.08
2023-05-04T12:17:03.884Z,0.10
2023-05-04T12:19:36.462Z,0.10
2023-05-04T12:22:13.533Z,0.10
2023-05-04T12:24:46.676Z,0.10
2023-05-04T12:27:18.126Z,0.10
2023-05-04T12:29:48.053Z,0.10
2023-05-04T12:32:18.256Z,0.20
2023-05-04T12:34:51.095Z,0.10
2023-05-04T12:37:25.052Z,0.10
2023-05-04T12:39:55.691Z,0.10
2023-05-04T12:42:25.701Z,0.10
2023-05-04T12:44:55.894Z,0.10
2023-05-04T12:47:35.393Z,0.10
2023-05-04T12:50:09.605Z,0.10
2023-05-04T12:52:44.694Z,0.10
2023-05-04T12:55:16.104Z,0.10
2023-05-04T12:57:47.868Z,0.10
2023-05-04T13:00:18.959Z,0.08
2023-05-04T13:02:49.269Z,0.10
2023-05-04T13:05:23.536Z,0.10
2023-05-04T13:08:26.821Z,0.10
2023-05-04T13:11:02.866Z,0.10
2023-05-04T13:13:33.763Z,0.10
2023-05-04T13:16:08.179Z,0.10
2023-05-04T13:18:38.993Z,0.10
2023-05-04T13:21:17.153Z,0.10
2023-05-04T13:23:50.912Z,0.10
2023-05-04T13:26:33.013Z,0.10
2023-05-04T13:29:10.378Z,0.10
2023-05-04T13:31:44.936Z,0.10
2023-05-04T13:34:17.827Z,0.10
2023-05-04T13:36:54.379Z,0.20
2023-05-04T13:39:30.399Z,0.10
2023-05-04T13:42:04.199Z,0.10
2023-05-04T13:44:39.152Z,0.10
2023-05-04T13:47:19.303Z,0.10
2023-05-04T13:49:51.974Z,0.10
2023-05-04T13:52:24.873Z,0.10
2023-05-04T13:54:57.134Z,0.15
2023-05-04T13:57:30.319Z,0.10
2023-05-04T14:00:07.168Z,0.10
2023-05-04T14:02:47.421Z,0.10
2023-05-04T14:05:45.330Z,0.10
2023-05-04T14:08:23.512Z,0.10
2023-05-04T14:10:53.937Z,0.10
2023-05-04T14:13:24.323Z,0.10
2023-05-04T14:15:57.192Z,0.10
2023-05-04T14:18:29.731Z,0.20
2023-05-04T14:20:59.881Z,0.10
2023-05-04T14:23:32.746Z,0.10
2023-05-04T14:26:03.057Z,0.10
2023-05-04T14:28:33.534Z,0.10
2023-05-04T14:31:09.110Z,0.20
2023-05-04T14:33:42.770Z,0.10
2023-05-04T14:36:17.236Z,0.10
2023-05-04T14:38:49.845Z,0.10
2023-05-04T14:41:22.122Z,0.10
2023-05-04T14:43:52.821Z,0.10
2023-05-04T14:46:29.155Z,0.20
2023-05-04T14:49:00.449Z,0.10
2023-05-04T14:51:32.598Z,0.20
2023-05-04T14:54:06.356Z,0.10
2023-05-04T14:56:44.994Z,0.15
2023-05-04T14:59:15.106Z,0.20
2023-05-04T15:01:58.336Z,0.13
2023-05-04T15:04:41.311Z,0.10
2023-05-04T15:07:14.734Z,0.20
2023-05-04T15:09:47.569Z,0.10
2023-05-04T15:12:18.710Z,0.20
2023-05-04T15:14:49.767Z,0.20
2023-05-04T15:17:40.753Z,0.10
2023-05-04T15:20:15.705Z,0.10
2023-05-04T15:22:53.956Z,0.20
2023-05-04T15:25:27.895Z,0.10
2023-05-04T15:28:02.361Z,0.20
2023-05-04T15:30:32.645Z,0.10
2023-05-04T15:33:04.774Z,0.10
2023-05-04T15:35:37.583Z,0.10
2023-05-04T15:38:08.921Z,0.20
2023-05-04T15:40:42.171Z,0.15
2023-05-04T15:43:15.516Z,0.10
2023-05-04T15:45:46.302Z,0.10
2023-05-04T15:48:18.551Z,0.10
2023-05-04T15:50:49.167Z,0.20
2023-05-04T15:53:22.597Z,0.20
2023-05-04T15:55:56.858Z,0.10
2023-05-04T15:58:30.253Z,0.20
2023-05-04T16:01:04.605Z,0.20
2023-05-04T16:03:38.787Z,0.20
2023-05-04T16:06:12.140Z,0.20
2023-05-04T16:08:45.636Z,0.10
2023-05-04T16:11:20.837Z,0.10
2023-05-04T16:13:50.971Z,0.20
2023-05-04T16:16:21.287Z,0.20
2023-05-04T16:18:52.843Z,0.20
2023-05-04T16:21:23.495Z,0.20
2023-05-04T16:23:54.165Z,0.20
2023-05-04T16:26:27.689Z,0.20
2023-05-04T16:28:59.142Z,0.20
2023-05-04T16:31:33.852Z,0.20
2023-05-04T16:34:06.491Z,0.20
2023-05-04T16:36:37.042Z,0.20
2023-05-04T16:39:12.386Z,0.20
2023-05-04T16:41:47.082Z,0.20
2023-05-04T16:44:17.840Z,0.20
2023-05-04T16:46:48.024Z,0.20
2023-05-04T16:49:18.413Z,0.20
2023-05-04T16:51:49.978Z,0.20
2023-05-04T16:54:21.421Z,0.20
2023-05-04T16:56:54.492Z,0.10
2023-05-04T16:59:25.473Z,0.20
2023-05-04T17:01:56.822Z,0.20
2023-05-04T17:04:32.413Z,0.15
2023-05-04T17:07:08.247Z,0.20
2023-05-04T17:09:39.718Z,0.20
2023-05-04T17:12:13.016Z,0.20
2023-05-04T17:14:43.490Z,0.20
2023-05-04T17:17:14.156Z,0.20
2023-05-04T17:19:45.451Z,0.30
2023-05-04T17:22:20.279Z,0.10
2023-05-04T17:24:51.585Z,0.20
2023-05-04T17:27:25.085Z,0.20
2023-05-04T17:29:55.222Z,0.20
2023-05-04T17:32:26.264Z,0.20
2023-05-04T17:35:01.276Z,0.20
2023-05-04T17:37:40.832Z,0.20
2023-05-04T17:40:13.178Z,0.20
2023-05-04T17:42:51.395Z,0.20
2023-05-04T17:45:23.933Z,0.30
2023-05-04T17:47:56.779Z,0.20
2023-05-04T17:50:29.421Z,0.20
2023-05-04T17:53:02.324Z,0.20
2023-05-04T17:55:34.617Z,0.20
2023-05-04T17:58:08.172Z,0.20
2023-05-04T18:00:38.544Z,0.17
2023-05-04T18:03:10.031Z,0.20
2023-05-04T18:05:42.094Z,0.22
2023-05-04T18:08:12.641Z,0.20
2023-05-04T18:10:43.094Z,0.30
2023-05-04T18:13:17.813Z,0.20
2023-05-04T18:15:51.338Z,0.20
2023-05-04T18:18:24.379Z,0.20
2023-05-04T18:20:57.735Z,0.20
2023-05-04T18:23:28.189Z,0.20
2023-05-04T18:26:00.960Z,0.20
2023-05-04T18:28:40.417Z,0.20
2023-05-04T18:31:15.095Z,0.30
2023-05-04T18:33:46.142Z,0.20
2023-05-04T18:36:18.607Z,0.30
2023-05-04T18:38:54.529Z,0.20
2023-05-04T18:41:24.873Z,0.30
2023-05-04T18:44:01.536Z,0.30
2023-05-04T18:46:35.283Z,0.20
2023-05-04T18:49:08.667Z,0.20
2023-05-04T18:51:41.986Z,0.20
2023-05-04T18:54:14.480Z,0.30
2023-05-04T18:56:46.132Z,0.20
2023-05-04T18:59:19.230Z,0.30
2023-05-04T19:01:52.521Z,0.30
2023-05-04T19:04:25.631Z,0.30
2023-05-04T19:06:57.685Z,0.30
2023-05-04T19:09:29.193Z,0.20
2023-05-04T19:11:59.618Z,0.30
2023-05-04T19:14:34.050Z,0.30
2023-05-04T19:17:06.032Z,0.20
2023-05-04T19:19:39.594Z,0.20
2023-05-04T19:22:13.608Z,0.20
2023-05-04T19:24:44.211Z,0.30
2023-05-04T19:27:16.466Z,0.22
2023-05-04T19:29:51.464Z,0.30
2023-05-04T19:32:25.271Z,0.20
2023-05-04T19:34:55.972Z,0.20
2023-05-04T19:37:26.908Z,0.30
2023-05-04T19:39:58.153Z,0.30
2023-05-04T19:42:31.986Z,0.30
2023-05-04T19:45:06.460Z,0.30
2023-05-04T19:47:39.006Z,0.30
2023-05-04T19:50:11.104Z,0.30
2023-05-04T19:52:41.397Z,0.20
2023-05-04T19:55:13.083Z,0.30
2023-05-04T19:57:44.522Z,0.28
2023-05-04T20:00:19.781Z,0.30
2023-05-04T20:02:53.027Z,0.30
2023-05-04T20:05:24.977Z,0.30
2023-05-04T20:07:55.451Z,0.30
2023-05-04T20:10:27.746Z,0.30
2023-05-04T20:12:57.873Z,0.30
2023-05-04T20:15:32.595Z,0.30
2023-05-04T20:18:02.848Z,0.28
2023-05-04T20:20:33.014Z,0.20
2023-05-04T20:23:04.394Z,0.30
2023-05-04T20:25:36.241Z,0.30
2023-05-04T20:28:06.987Z,0.20
2023-05-04T20:30:40.455Z,0.30
2023-05-04T20:33:11.994Z,0.30
2023-05-04T20:35:45.532Z,0.30
2023-05-04T20:38:16.146Z,0.35
2023-05-04T20:40:47.304Z,0.30
2023-05-04T20:43:18.239Z,0.30
2023-05-04T20:45:52.084Z,0.30
2023-05-04T20:48:22.601Z,0.28
2023-05-04T20:51:02.771Z,0.30
2023-05-04T20:53:43.700Z,0.30
2023-05-04T20:56:15.056Z,0.30
2023-05-04T20:58:45.460Z,0.30
2023-05-04T21:01:18.499Z,0.30
2023-05-04T21:03:49.231Z,0.30
2023-05-04T21:06:19.597Z,0.30
2023-05-04T21:08:49.713Z,0.30
2023-05-04T21:11:19.527Z,0.30
2023-05-04T21:13:53.955Z,0.30
2023-05-04T21:16:26.995Z,0.40
2023-05-04T21:18:57.318Z,0.30
2023-05-04T21:21:27.313Z,0.30
2023-05-04T21:23:57.909Z,0.30
2023-05-04T21:26:28.033Z,0.30
2023-05-04T21:28:58.589Z,0.28
2023-05-04T21:31:33.666Z,0.30
2023-05-04T21:34:03.950Z,0.30
2023-05-04T21:36:35.368Z,0.30
2023-05-04T21:39:07.236Z,0.30
2023-05-04T21:41:37.380Z,0.30
2023-05-04T21:44:07.733Z,0.30
2023-05-04T21:46:40.623Z,0.30
2023-05-04T21:49:10.875Z,0.30
2023-05-04T21:51:42.445Z,0.30
2023-05-04T21:54:12.889Z,0.30
2023-05-04T21:56:43.702Z,0.30
2023-05-04T21:59:16.367Z,0.30
2023-05-04T22:01:49.113Z,0.30
2023-05-04T22:04:20.988Z,0.30
2023-05-04T22:06:51.866Z,0.30
2023-05-04T22:09:22.017Z,0.30
2023-05-04T22:11:52.110Z,0.30
2023-05-04T22:14:23.122Z,0.30
2023-05-04T22:16:56.228Z,0.30
2023-05-04T22:19:26.267Z,0.30
2023-05-04T22:21:56.216Z,0.30
2023-05-04T22:24:26.755Z,0.30
2023-05-04T22:26:59.015Z,0.30
2023-05-04T22:29:29.325Z,0.30
2023-05-04T22:32:01.684Z,0.30
2023-05-04T22:34:31.708Z,0.40
2023-05-04T22:37:01.434Z,0.30
2023-05-04T22:39:31.275Z,0.30
2023-05-04T22:42:01.813Z,0.40
2023-05-04T22:44:32.174Z,0.30
2023-05-04T22:47:04.842Z,0.30
2023-05-04T22:49:34.776Z,0.40
2023-05-04T22:52:04.709Z,0.30
2023-05-04T22:54:34.533Z,0.30
2023-05-04T22:57:04.259Z,0.30
2023-05-04T22:59:34.545Z,0.30
2023-05-04T23:02:07.088Z,0.30
2023-05-04T23:04:37.102Z,0.30
2023-05-04T23:07:08.067Z,0.30
2023-05-04T23:09:45.516Z,0.40
2023-05-04T23:12:16.246Z,0.40
2023-05-04T23:14:52.572Z,0.40
2023-05-04T23:17:25.285Z,0.40
2023-05-04T23:19:56.324Z,0.40
2023-05-04T23:22:28.356Z,0.50
2023-05-04T23:25:03.844Z,0.40
2023-05-04T23:27:35.692Z,0.40
2023-05-04T23:30:06.617Z,0.40
2023-05-04T23:32:39.358Z,0.40
2023-05-04T23:35:12.064Z,0.40
2023-05-04T23:37:43.081Z,0.38
2023-05-04T23:40:13.904Z,0.40
2023-05-04T23:42:43.904Z,0.38
2023-05-04T23:45:15.564Z,0.40
2023-05-04T23:47:48.718Z,0.30
2023-05-04T23:50:19.323Z,0.40
2023-05-04T23:52:49.929Z,0.40
2023-05-04T23:55:20.204Z,0.40
2023-05-04T23:57:50.177Z,0.30
